createdAt,value
2019-02-24T00:00:46.859Z,11.07
2019-02-24T00:02:51.698Z,12.33
2019-02-24T00:04:57.432Z,9.30
2019-02-24T00:07:02.777Z,15.00
2019-02-24T00:09:07.797Z,12.13
2019-02-24T00:11:12.270Z,14.63
2019-02-24T00:13:16.677Z,10.53
2019-02-24T00:15:21.319Z,10.73
2019-02-24T00:17:26.953Z,15.80
2019-02-24T00:19:34.410Z,12.13
2019-02-24T00:21:38.944Z,12.93
2019-02-24T00:23:43.756Z,11.43
2019-02-24T00:25:50.156Z,12.27
2019-02-24T00:27:54.863Z,12.00
2019-02-24T00:29:59.451Z,11.67
2019-02-24T00:32:06.714Z,8.83
2019-02-24T00:34:11.230Z,11.30
2019-02-24T00:36:15.699Z,15.10
2019-02-24T00:38:20.870Z,13.07
2019-02-24T00:40:25.418Z,12.70
2019-02-24T00:42:31.457Z,13.10
2019-02-24T00:44:36.523Z,11.70
2019-02-24T00:46:41.034Z,8.60
2019-02-24T00:48:45.417Z,9.97
2019-02-24T00:50:49.799Z,11.37
2019-02-24T00:52:54.810Z,9.27
2019-02-24T00:54:59.586Z,10.03
2019-02-24T00:57:04.889Z,11.43
2019-02-24T00:59:09.236Z,9.83
2019-02-24T01:01:13.602Z,12.97
2019-02-24T01:03:20.207Z,9.17
2019-02-24T01:05:26.042Z,10.00
2019-02-24T01:07:30.534Z,11.93
2019-02-24T01:09:34.925Z,15.23
2019-02-24T01:11:39.433Z,13.10
2019-02-24T01:13:44.167Z,12.70
2019-02-24T01:15:50.959Z,15.40
2019-02-24T01:17:58.227Z,17.57
2019-02-24T01:20:03.833Z,9.97
2019-02-24T01:22:08.251Z,13.73
2019-02-24T01:24:12.688Z,11.53
2019-02-24T01:26:17.474Z,11.83
2019-02-24T01:28:25.357Z,10.30
2019-02-24T01:30:28.635Z,9.23
2019-02-24T01:32:33.171Z,11.20
2019-02-24T01:34:37.575Z,11.77
2019-02-24T01:36:42.095Z,12.80
2019-02-24T01:38:46.575Z,10.23
2019-02-24T01:40:51.016Z,18.60
2019-02-24T01:43:06.435Z,9.90
2019-02-24T01:45:10.949Z,8.17
2019-02-24T01:47:15.451Z,12.27
2019-02-24T01:49:20.258Z,13.00
2019-02-24T01:51:24.974Z,10.47
2019-02-24T01:53:29.679Z,12.63
2019-02-24T01:55:34.546Z,11.53
2019-02-24T01:57:40.193Z,12.50
2019-02-24T01:59:44.580Z,14.27
2019-02-24T02:01:51.073Z,8.07
2019-02-24T02:03:55.474Z,10.23
2019-02-24T02:06:00.282Z,8.80
2019-02-24T02:08:04.982Z,11.40
2019-02-24T02:10:12.316Z,7.53
2019-02-24T02:12:16.717Z,10.20
2019-02-24T02:14:21.203Z,8.60
2019-02-24T02:16:25.684Z,7.60
2019-02-24T02:18:30.356Z,12.47
2019-02-24T02:20:34.863Z,8.97
2019-02-24T02:22:39.672Z,8.73
2019-02-24T02:24:44.147Z,13.27
2019-02-24T02:26:50.514Z,14.23
2019-02-24T02:28:54.891Z,10.07
2019-02-24T02:30:59.638Z,11.90
2019-02-24T02:33:04.603Z,10.93
2019-02-24T02:35:09.725Z,10.20
2019-02-24T02:37:14.567Z,11.37
2019-02-24T02:39:19.586Z,10.33
2019-02-24T02:41:25.824Z,9.47
2019-02-24T02:43:31.111Z,11.03
2019-02-24T02:45:36.335Z,9.90
2019-02-24T02:47:40.785Z,9.63
2019-02-24T02:49:46.326Z,13.07
2019-02-24T02:51:51.302Z,8.80
2019-02-24T02:53:55.801Z,7.67
2019-02-24T02:56:00.325Z,9.57
2019-02-24T02:58:06.297Z,10.43
2019-02-24T03:00:27.618Z,9.70
2019-02-24T03:02:32.912Z,8.30
2019-02-24T03:04:38.959Z,7.30
2019-02-24T03:06:54.145Z,6.47
2019-02-24T03:08:58.609Z,8.27
2019-02-24T03:11:03.067Z,9.70
2019-02-24T03:13:08.971Z,16.47
2019-02-24T03:15:13.531Z,11.20
2019-02-24T03:17:18.872Z,8.00
2019-02-24T03:19:23.345Z,7.83
2019-02-24T03:21:29.987Z,12.10
2019-02-24T03:23:34.973Z,5.93
2019-02-24T03:25:41.522Z,10.70
2019-02-24T03:27:51.872Z,12.23
2019-02-24T03:29:56.734Z,8.37
2019-02-24T03:32:01.207Z,8.43
2019-02-24T03:34:06.125Z,8.13
2019-02-24T03:36:10.596Z,9.07
2019-02-24T03:38:15.001Z,8.77
2019-02-24T03:40:19.487Z,9.47
2019-02-24T03:42:23.880Z,13.17
2019-02-24T03:44:28.640Z,13.20
2019-02-24T03:46:33.080Z,6.83
2019-02-24T03:48:37.522Z,8.57
2019-02-24T03:50:43.214Z,7.20
2019-02-24T03:52:47.940Z,7.70
2019-02-24T03:54:52.970Z,10.40
2019-02-24T03:56:57.799Z,8.33
2019-02-24T03:59:03.485Z,9.60
2019-02-24T04:01:08.035Z,10.23
2019-02-24T04:03:12.501Z,10.07
2019-02-24T04:05:17.912Z,7.30
2019-02-24T04:07:22.324Z,7.30
2019-02-24T04:09:27.131Z,8.40
2019-02-24T04:11:31.919Z,8.20
2019-02-24T04:13:38.691Z,10.13
2019-02-24T04:15:42.992Z,8.10
2019-02-24T04:18:20.692Z,8.10
2019-02-24T04:20:25.468Z,8.70
2019-02-24T04:22:29.978Z,8.93
2019-02-24T04:24:34.587Z,13.57
2019-02-24T04:26:40.941Z,6.37
2019-02-24T04:28:45.450Z,12.57
2019-02-24T04:30:49.974Z,7.83
2019-02-24T04:32:55.034Z,8.97
2019-02-24T04:35:01.514Z,7.90
2019-02-24T04:37:06.913Z,8.57
2019-02-24T04:39:13.419Z,6.87
2019-02-24T04:41:17.853Z,6.20
2019-02-24T04:43:22.464Z,9.40
2019-02-24T04:45:27.071Z,11.33
2019-02-24T04:47:32.060Z,7.13
2019-02-24T04:49:37.714Z,7.57
2019-02-24T04:51:43.212Z,12.00
2019-02-24T04:53:48.018Z,11.77
2019-02-24T04:55:52.804Z,7.40
2019-02-24T04:57:57.236Z,9.93
2019-02-24T05:00:02.601Z,8.50
2019-02-24T05:02:07.081Z,6.17
2019-02-24T05:04:11.655Z,7.50
2019-02-24T05:06:16.066Z,9.60
2019-02-24T05:08:20.457Z,8.13
2019-02-24T05:10:25.563Z,8.23
2019-02-24T05:12:35.018Z,6.00
2019-02-24T05:14:39.838Z,9.80
2019-02-24T05:16:47.098Z,10.33
2019-02-24T05:18:51.549Z,9.77
2019-02-24T05:20:56.086Z,8.00
2019-02-24T05:23:01.776Z,8.07
2019-02-24T05:25:07.188Z,9.93
2019-02-24T05:27:11.595Z,8.60
2019-02-24T05:29:16.087Z,7.70
2019-02-24T05:31:21.979Z,8.17
2019-02-24T05:33:27.288Z,7.07
2019-02-24T05:35:42.239Z,9.13
2019-02-24T05:37:47.064Z,8.47
2019-02-24T05:39:51.478Z,7.73
2019-02-24T05:41:56.544Z,7.10
2019-02-24T05:44:04.125Z,18.80
2019-02-24T05:46:22.488Z,5.90
2019-02-24T05:48:28.477Z,7.10
2019-02-24T05:50:34.530Z,9.30
2019-02-24T05:52:39.348Z,7.33
2019-02-24T05:54:45.102Z,8.70
2019-02-24T05:56:59.605Z,7.57
2019-02-24T05:59:04.804Z,8.70
2019-02-24T06:01:10.621Z,8.70
2019-02-24T06:03:23.396Z,8.97
2019-02-24T06:05:31.557Z,8.80
2019-02-24T06:07:39.377Z,9.00
2019-02-24T06:09:44.667Z,9.70
2019-02-24T06:11:51.016Z,9.43
2019-02-24T06:13:55.987Z,7.07
2019-02-24T06:16:00.636Z,8.73
2019-02-24T06:18:05.036Z,9.63
2019-02-24T06:20:09.871Z,11.17
2019-02-24T06:22:16.177Z,9.03
2019-02-24T06:24:20.725Z,5.07
2019-02-24T06:26:26.928Z,6.97
2019-02-24T06:28:37.383Z,9.67
2019-02-24T06:30:41.939Z,8.27
2019-02-24T06:32:46.933Z,7.57
2019-02-24T06:34:52.278Z,10.00
2019-02-24T06:36:59.575Z,9.73
2019-02-24T06:39:06.190Z,7.10
2019-02-24T06:41:10.741Z,6.70
2019-02-24T06:43:19.323Z,7.20
2019-02-24T06:45:24.189Z,9.33
2019-02-24T06:47:29.057Z,11.33
2019-02-24T06:49:33.963Z,9.33
2019-02-24T06:51:39.800Z,14.53
2019-02-24T06:53:44.237Z,4.80
2019-02-24T06:55:48.686Z,8.53
2019-02-24T06:57:54.358Z,7.20
2019-02-24T07:00:00.481Z,13.20
2019-02-24T07:02:09.782Z,6.57
2019-02-24T07:04:15.292Z,10.57
2019-02-24T07:06:20.105Z,7.10
2019-02-24T07:08:24.542Z,8.73
2019-02-24T07:10:29.040Z,6.60
2019-02-24T07:12:35.084Z,6.10
2019-02-24T07:14:41.253Z,9.40
2019-02-24T07:16:45.797Z,13.73
2019-02-24T07:18:52.398Z,4.30
2019-02-24T07:20:57.264Z,6.23
2019-02-24T07:23:02.242Z,6.90
2019-02-24T07:25:07.905Z,7.97
2019-02-24T07:27:12.605Z,6.77
2019-02-24T07:29:17.539Z,7.77
2019-02-24T07:31:22.554Z,8.97
2019-02-24T07:33:28.022Z,7.00
2019-02-24T07:35:35.194Z,12.40
2019-02-24T07:37:44.100Z,7.60
2019-02-24T07:39:48.886Z,7.37
2019-02-24T07:41:53.816Z,6.40
2019-02-24T07:44:00.534Z,4.87
2019-02-24T07:46:04.940Z,7.90
2019-02-24T07:48:09.733Z,4.10
2019-02-24T07:50:14.171Z,9.00
2019-02-24T07:52:18.587Z,9.63
2019-02-24T07:54:23.324Z,6.43
2019-02-24T07:56:27.779Z,5.23
2019-02-24T07:58:34.967Z,6.17
2019-02-24T08:00:39.469Z,6.93
2019-02-24T08:02:44.926Z,7.90
2019-02-24T08:04:49.491Z,5.13
2019-02-24T08:06:54.112Z,5.70
2019-02-24T08:09:07.478Z,7.33
2019-02-24T08:11:16.978Z,7.47
2019-02-24T08:13:21.500Z,6.13
2019-02-24T08:15:26.322Z,7.93
2019-02-24T08:17:30.818Z,5.30
2019-02-24T08:19:35.295Z,6.50
2019-02-24T08:21:39.701Z,7.53
2019-02-24T08:23:44.587Z,10.03
2019-02-24T08:25:49.549Z,4.30
2019-02-24T08:27:55.598Z,9.13
2019-02-24T08:30:02.369Z,3.80
2019-02-24T08:32:06.900Z,7.03
2019-02-24T08:34:11.459Z,4.93
2019-02-24T08:36:15.953Z,5.20
2019-02-24T08:38:20.575Z,4.37
2019-02-24T08:40:25.212Z,5.20
2019-02-24T08:42:30.651Z,6.10
2019-02-24T08:44:35.244Z,4.03
2019-02-24T08:46:39.795Z,5.27
2019-02-24T08:48:45.319Z,5.83
2019-02-24T08:50:49.791Z,5.07
2019-02-24T08:52:54.387Z,4.73
2019-02-24T08:54:58.868Z,7.53
2019-02-24T08:57:06.218Z,7.00
2019-02-24T08:59:10.734Z,4.27
2019-02-24T09:01:15.795Z,4.50
2019-02-24T09:03:20.517Z,5.40
2019-02-24T09:05:26.063Z,5.23
2019-02-24T09:07:31.326Z,4.17
2019-02-24T09:09:36.305Z,6.37
2019-02-24T09:11:41.251Z,5.83
2019-02-24T09:13:48.461Z,8.90
2019-02-24T09:15:55.114Z,6.17
2019-02-24T09:17:59.875Z,9.93
2019-02-24T09:20:04.868Z,6.00
2019-02-24T09:22:12.455Z,4.23
2019-02-24T09:24:18.484Z,9.57
2019-02-24T09:26:23.273Z,14.20
2019-02-24T09:28:27.760Z,4.20
2019-02-24T09:30:32.484Z,3.80
2019-02-24T09:32:36.918Z,6.43
2019-02-24T09:34:41.458Z,6.27
2019-02-24T09:36:48.497Z,3.67
2019-02-24T09:38:53.647Z,4.70
2019-02-24T09:40:58.385Z,6.67
2019-02-24T09:43:05.945Z,4.90
2019-02-24T09:45:11.252Z,6.03
2019-02-24T09:47:20.369Z,7.97
2019-02-24T09:49:24.785Z,6.40
2019-02-24T09:51:29.230Z,4.00
2019-02-24T09:53:34.188Z,5.93
2019-02-24T09:55:38.947Z,4.80
2019-02-24T09:57:43.476Z,4.90
2019-02-24T09:59:49.782Z,5.37
2019-02-24T10:01:54.623Z,4.10
2019-02-24T10:04:04.774Z,3.87
2019-02-24T10:06:19.935Z,4.70
2019-02-24T10:08:51.177Z,4.27
2019-02-24T10:10:56.845Z,6.43
2019-02-24T10:13:01.283Z,5.43
2019-02-24T10:15:07.405Z,2.40
2019-02-24T10:17:13.340Z,3.27
2019-02-24T10:19:19.091Z,3.57
2019-02-24T10:21:27.418Z,3.77
2019-02-24T10:23:31.983Z,4.37
2019-02-24T10:25:36.873Z,5.20
2019-02-24T10:27:41.670Z,3.83
2019-02-24T10:29:46.131Z,4.40
2019-02-24T10:31:51.233Z,3.30
2019-02-24T10:33:57.646Z,7.47
2019-02-24T10:36:03.795Z,4.70
2019-02-24T10:38:08.637Z,8.17
2019-02-24T10:40:14.055Z,5.70
2019-02-24T10:42:18.515Z,5.00
2019-02-24T10:44:23.432Z,3.77
2019-02-24T10:46:27.915Z,5.27
2019-02-24T10:48:32.333Z,7.10
2019-02-24T10:50:37.164Z,4.57
2019-02-24T10:52:41.924Z,4.47
2019-02-24T10:54:48.072Z,4.33
2019-02-24T10:56:55.042Z,4.87
2019-02-24T10:59:35.506Z,3.60
2019-02-24T11:01:42.472Z,3.20
2019-02-24T11:03:47.257Z,5.87
2019-02-24T11:05:52.083Z,4.40
2019-02-24T11:08:03.325Z,3.00
2019-02-24T11:10:10.215Z,3.93
2019-02-24T11:12:23.159Z,2.70
2019-02-24T11:14:28.244Z,2.90
2019-02-24T11:16:34.127Z,3.47
2019-02-24T11:18:40.169Z,5.70
2019-02-24T11:20:44.935Z,5.70
2019-02-24T11:22:50.652Z,4.03
2019-02-24T11:24:56.518Z,4.23
2019-02-24T11:27:01.086Z,4.47
2019-02-24T11:29:06.329Z,8.73
2019-02-24T11:31:11.335Z,4.73
2019-02-24T11:33:16.258Z,4.00
2019-02-24T11:35:23.629Z,2.73
2019-02-24T11:37:28.559Z,8.40
2019-02-24T11:39:38.172Z,6.23
2019-02-24T11:41:47.414Z,2.13
2019-02-24T11:43:54.695Z,4.63
2019-02-24T11:45:59.858Z,9.00
2019-02-24T11:48:04.539Z,4.90
2019-02-24T11:50:11.267Z,2.63
2019-02-24T11:52:16.398Z,2.87
2019-02-24T11:54:21.533Z,3.77
2019-02-24T11:56:29.301Z,5.80
2019-02-24T11:58:35.980Z,4.10
2019-02-24T12:00:45.997Z,4.07
2019-02-24T12:03:06.641Z,2.40
2019-02-24T12:08:21.418Z,6.53
2019-02-24T12:13:05.660Z,4.57
2019-02-24T12:15:11.303Z,3.93
2019-02-24T12:17:16.511Z,2.37
2019-02-24T12:19:24.113Z,4.70
2019-02-24T12:21:28.687Z,2.90
2019-02-24T12:23:33.966Z,5.23
2019-02-24T12:25:38.567Z,2.90
2019-02-24T12:27:47.762Z,1.97
2019-02-24T12:29:55.688Z,3.97
2019-02-24T12:32:02.237Z,3.33
2019-02-24T12:34:07.664Z,2.90
2019-02-24T12:36:13.176Z,3.60
2019-02-24T12:38:19.933Z,10.23
2019-02-24T12:40:56.252Z,4.13
2019-02-24T12:49:39.288Z,3.10
2019-02-24T12:51:45.667Z,3.27
2019-02-24T12:53:51.743Z,4.10
2019-02-24T12:55:59.019Z,4.77
2019-02-24T12:58:07.430Z,2.27
2019-02-24T13:00:15.631Z,2.87
2019-02-24T13:02:36.409Z,2.70
2019-02-24T13:04:49.282Z,3.27
2019-02-24T13:06:57.566Z,5.60
2019-02-24T13:09:05.049Z,1.23
2019-02-24T13:11:19.356Z,3.60
2019-02-24T13:13:25.282Z,2.07
2019-02-24T13:19:22.634Z,1.80
2019-02-24T13:21:51.957Z,4.07
2019-02-24T13:24:05.388Z,2.40
2019-02-24T13:26:24.691Z,1.77
2019-02-24T13:31:33.178Z,1.83
2019-02-24T13:33:43.968Z,2.63
2019-02-24T13:35:54.477Z,2.60
2019-02-24T13:38:02.704Z,3.37
2019-02-24T13:40:14.970Z,2.37
2019-02-24T13:42:20.682Z,2.33
2019-02-24T13:44:29.372Z,4.63
2019-02-24T13:46:35.657Z,5.60
2019-02-24T13:48:42.780Z,2.57
2019-02-24T13:50:48.412Z,3.20
2019-02-24T13:52:57.213Z,1.63
2019-02-24T13:55:09.728Z,3.47
2019-02-24T13:57:16.418Z,2.57
2019-02-24T13:59:22.568Z,6.30
2019-02-24T14:01:27.765Z,3.80
2019-02-24T14:03:36.498Z,2.90
2019-02-24T14:05:41.705Z,2.97
2019-02-24T14:07:50.902Z,2.37
2019-02-24T14:09:56.431Z,2.57
2019-02-24T14:12:18.077Z,3.47
2019-02-24T14:14:25.005Z,2.47
2019-02-24T14:16:31.451Z,5.73
2019-02-24T14:18:36.781Z,3.10
2019-02-24T14:20:45.830Z,2.10
2019-02-24T14:22:52.408Z,4.53
2019-02-24T14:24:57.069Z,4.80
2019-02-24T14:27:03.224Z,2.40
2019-02-24T14:29:12.386Z,1.50
2019-02-24T14:31:21.916Z,4.70
2019-02-24T14:33:26.939Z,5.53
2019-02-24T14:35:34.946Z,2.30
2019-02-24T14:37:39.558Z,3.00
2019-02-24T14:39:44.415Z,1.97
2019-02-24T14:41:58.191Z,1.57
2019-02-24T14:44:11.443Z,2.10
2019-02-24T14:46:18.155Z,3.77
2019-02-24T14:48:27.617Z,1.73
2019-02-24T14:50:35.769Z,3.60
2019-02-24T14:52:45.368Z,2.37
2019-02-24T14:54:55.810Z,2.27
2019-02-24T14:57:21.069Z,1.87
2019-02-24T14:59:38.844Z,3.27
2019-02-24T15:01:47.430Z,4.80
2019-02-24T15:03:56.640Z,4.27
2019-02-24T15:06:03.257Z,3.00
2019-02-24T15:08:10.064Z,2.00
2019-02-24T15:10:20.194Z,1.53
2019-02-24T15:12:28.012Z,2.50
2019-02-24T15:15:10.877Z,1.37
2019-02-24T15:20:14.108Z,1.63
2019-02-24T15:22:19.520Z,1.13
2019-02-24T15:24:39.334Z,4.10
2019-02-24T15:27:47.787Z,1.73
2019-02-24T15:30:30.033Z,1.60
2019-02-24T15:36:17.939Z,4.10
2019-02-24T15:48:29.987Z,4.50
2019-02-24T15:50:54.898Z,2.30
2019-02-24T15:53:03.358Z,6.30
2019-02-24T15:55:30.450Z,1.93
2019-02-24T15:58:11.520Z,2.03
2019-02-24T16:06:10.609Z,2.23
2019-02-24T16:11:46.928Z,1.73
2019-02-24T16:14:44.632Z,5.50
2019-02-24T16:20:17.344Z,2.07
2019-02-24T16:22:24.357Z,1.83
2019-02-24T16:24:47.469Z,2.80
2019-02-24T16:27:01.098Z,1.70
2019-02-24T16:29:11.257Z,63.07
2019-02-24T16:31:17.182Z,68.20
2019-02-24T16:33:21.809Z,34.83
2019-02-24T16:35:33.771Z,24.23
2019-02-24T16:37:44.307Z,8.10
2019-02-24T16:42:33.620Z,3.70
2019-02-24T16:44:44.221Z,4.60
2019-02-24T16:47:07.433Z,4.97
2019-02-24T16:49:16.303Z,3.07
2019-02-24T16:51:31.242Z,4.70
2019-02-24T16:54:14.349Z,2.33
2019-02-24T16:59:33.348Z,7.83
2019-02-24T17:02:06.012Z,7.87
2019-02-24T17:04:16.075Z,6.37
2019-02-24T17:06:26.718Z,8.10
2019-02-24T17:09:08.941Z,8.70
2019-02-24T17:11:20.745Z,7.10
2019-02-24T17:13:26.713Z,6.40
2019-02-24T17:15:34.122Z,4.50
2019-02-24T17:17:59.985Z,4.43
2019-02-24T17:20:06.020Z,3.73
2019-02-24T17:22:29.660Z,6.63
2019-02-24T17:24:34.585Z,4.70
2019-02-24T17:26:40.229Z,3.53
2019-02-24T17:28:45.003Z,5.50
2019-02-24T17:30:50.203Z,6.90
2019-02-24T17:32:58.287Z,4.50
2019-02-24T17:35:02.887Z,2.93
2019-02-24T17:37:08.159Z,3.50
2019-02-24T17:39:12.888Z,11.13
2019-02-24T17:41:18.604Z,10.80
2019-02-24T17:43:24.955Z,10.20
2019-02-24T17:45:42.166Z,6.80
2019-02-24T17:47:57.000Z,10.67
2019-02-24T17:50:02.554Z,3.70
2019-02-24T17:52:08.559Z,6.13
2019-02-24T17:54:14.401Z,8.77
2019-02-24T17:56:19.411Z,7.00
2019-02-24T17:58:26.786Z,21.73
2019-02-24T18:00:37.383Z,14.27
2019-02-24T18:02:44.252Z,5.90
2019-02-24T18:04:50.043Z,8.17
2019-02-24T18:07:00.946Z,7.93
2019-02-24T18:09:08.171Z,14.40
2019-02-24T18:11:17.232Z,5.93
2019-02-24T18:13:22.878Z,5.13
2019-02-24T18:15:28.666Z,8.20
2019-02-24T18:17:34.984Z,9.27
2019-02-24T18:19:41.997Z,8.30
2019-02-24T18:22:05.815Z,5.57
2019-02-24T18:24:11.002Z,7.10
2019-02-24T18:26:17.007Z,9.47
2019-02-24T18:28:23.481Z,15.80
2019-02-24T18:30:30.975Z,14.77
2019-02-24T18:32:37.538Z,8.63
2019-02-24T18:34:44.670Z,10.10
2019-02-24T18:36:58.193Z,10.70
2019-02-24T18:39:32.870Z,8.87
2019-02-24T18:41:40.435Z,7.87
2019-02-24T18:43:45.366Z,10.70
2019-02-24T18:45:55.926Z,7.80
2019-02-24T18:48:04.265Z,9.63
2019-02-24T18:50:10.589Z,10.20
2019-02-24T18:52:17.431Z,10.03
2019-02-24T18:54:34.393Z,6.87
2019-02-24T18:56:35.319Z,8.57
2019-02-24T18:58:42.627Z,7.53
2019-02-24T19:00:49.047Z,8.40
2019-02-24T19:02:59.064Z,8.50
2019-02-24T19:05:45.071Z,7.63
2019-02-24T19:08:18.190Z,4.00
2019-02-24T19:10:27.255Z,4.03
2019-02-24T19:12:33.390Z,8.37
2019-02-24T19:14:40.009Z,3.97
2019-02-24T19:16:49.069Z,4.03
2019-02-24T19:18:57.447Z,4.87
2019-02-24T19:21:13.123Z,6.63
2019-02-24T19:23:37.026Z,8.73
2019-02-24T19:26:02.871Z,8.23
2019-02-24T19:28:47.247Z,8.53
2019-02-24T19:38:32.271Z,5.70
2019-02-24T19:41:02.182Z,7.10
2019-02-24T19:43:10.069Z,11.20
2019-02-24T19:46:04.658Z,9.70
2019-02-24T19:51:08.139Z,3.80
2019-02-24T19:53:33.744Z,5.23
2019-02-24T19:55:54.850Z,4.37
2019-02-24T19:58:09.260Z,5.17
2019-02-24T20:00:36.085Z,6.60
2019-02-24T20:02:48.974Z,6.97
2019-02-24T20:05:02.837Z,5.70
2019-02-24T20:07:10.242Z,5.77
2019-02-24T20:09:17.271Z,6.83
2019-02-24T20:11:33.496Z,7.03
2019-02-24T20:13:46.010Z,7.07
2019-02-24T20:16:17.590Z,5.27
2019-02-24T20:18:24.306Z,5.67
2019-02-24T20:26:39.025Z,6.57
2019-02-24T20:29:26.700Z,6.17
2019-02-24T20:31:34.589Z,8.40
2019-02-24T20:33:42.842Z,6.80
2019-02-24T20:35:51.138Z,13.43
2019-02-24T20:44:46.209Z,8.87
2019-02-24T20:46:54.657Z,7.80
2019-02-24T20:49:01.699Z,15.80
2019-02-24T20:51:08.479Z,9.23
2019-02-24T20:53:13.577Z,12.43
2019-02-24T20:55:19.317Z,13.20
2019-02-24T20:57:24.313Z,14.83
2019-02-24T20:59:28.921Z,8.43
2019-02-24T21:01:33.828Z,11.40
2019-02-24T21:03:39.244Z,9.57
2019-02-24T21:05:44.897Z,11.23
2019-02-24T21:07:50.023Z,9.47
2019-02-24T21:09:54.919Z,10.80
2019-02-24T21:12:01.344Z,8.40
2019-02-24T21:14:08.484Z,6.40
2019-02-24T21:16:16.245Z,13.17
2019-02-24T21:18:21.681Z,8.30
2019-02-24T21:20:27.385Z,9.70
2019-02-24T21:22:32.309Z,5.23
2019-02-24T21:24:37.043Z,11.07
2019-02-24T21:26:42.382Z,7.90
2019-02-24T21:28:48.936Z,7.50
2019-02-24T21:30:57.255Z,7.87
2019-02-24T21:33:02.102Z,8.13
2019-02-24T21:35:08.924Z,8.67
2019-02-24T21:37:17.542Z,9.30
2019-02-24T21:39:22.731Z,7.30
2019-02-24T21:41:31.949Z,9.70
2019-02-24T21:43:38.273Z,9.43
2019-02-24T21:45:46.055Z,11.03
2019-02-24T21:47:54.164Z,13.17
2019-02-24T21:49:59.829Z,7.77
2019-02-24T21:52:13.887Z,8.10
2019-02-24T21:54:19.062Z,9.70
2019-02-24T21:56:24.301Z,13.07
2019-02-24T21:58:30.741Z,8.27
2019-02-24T22:00:36.718Z,11.80
2019-02-24T22:02:42.305Z,8.83
2019-02-24T22:04:48.726Z,12.90
2019-02-24T22:06:54.553Z,8.13
2019-02-24T22:09:00.501Z,10.73
2019-02-24T22:11:08.689Z,6.57
2019-02-24T22:13:14.242Z,9.93
2019-02-24T22:15:20.286Z,6.60
2019-02-24T22:17:28.619Z,7.57
2019-02-24T22:19:33.954Z,8.87
2019-02-24T22:22:31.170Z,9.20
2019-02-24T22:28:07.457Z,6.90
2019-02-24T22:31:20.378Z,10.40
2019-02-24T22:34:27.764Z,6.37
2019-02-24T22:39:29.304Z,6.90
2019-02-24T22:41:43.028Z,5.27
2019-02-24T22:43:50.375Z,7.00
2019-02-24T22:46:47.665Z,9.27
2019-02-24T22:49:02.284Z,7.50
2019-02-24T22:51:19.615Z,9.00
2019-02-24T22:53:34.358Z,7.50
2019-02-24T22:55:56.956Z,7.73
2019-02-24T22:58:06.948Z,9.30
2019-02-24T23:01:42.307Z,10.47
2019-02-24T23:10:10.123Z,5.30
2019-02-24T23:12:18.934Z,6.87
2019-02-24T23:14:23.537Z,5.97
2019-02-24T23:16:30.108Z,5.93
2019-02-24T23:18:36.895Z,6.53
2019-02-24T23:20:42.241Z,8.40
2019-02-24T23:22:47.099Z,5.67
2019-02-24T23:24:53.741Z,6.93
2019-02-24T23:26:59.688Z,7.53
2019-02-24T23:29:06.867Z,8.13
2019-02-24T23:31:18.943Z,6.10
2019-02-24T23:33:24.920Z,6.83
2019-02-24T23:35:31.321Z,6.13
2019-02-24T23:37:39.240Z,17.63
2019-02-24T23:39:45.603Z,9.50
2019-02-24T23:41:53.108Z,8.33
2019-02-24T23:43:58.619Z,5.37
2019-02-24T23:46:13.146Z,9.13
2019-02-24T23:48:25.838Z,6.67
2019-02-24T23:50:39.867Z,15.50
2019-02-24T23:52:46.760Z,6.50
2019-02-24T23:54:51.280Z,7.83
2019-02-24T23:56:55.784Z,6.23
2019-02-24T23:59:01.073Z,7.37
